Latest Weather Observations for PORTABLE RFSNSW03

IDN60801

Issued at 6:33 pm EST Monday 4 July 2022 (issued every 10 minutes, with the page automatically refreshed every 10 minutes)

About weather observations | Map of weather stations | Latest weather observations for NSW | Other Formats
Station Details ID: 250056 Name: PORTABLE RFSNSW03 Lat: -34.45 Lon: 150.22 Height: 724.0 m

Portable automatic weather stations (PAWS) are operated by other organisations, such as Fire and Emergency Services, and are included here by agreement. Portable stations may be deployed to a location for a short period and their location may be subject to change without notice. Wind observations from these stations are provided from heights of either three (3) or ten (10) metres above ground level (AGL).

Data from the previous 72 hours. | See also: Recent months for locations in New South Wales
Date/Time
EST
Temp
°C
App
Temp
°C
Dew
Point
°C
Rel
Hum
%
Delta-T
°C
Wind Press
QNH
hPa
Press
MSL
hPa
Rain since
9am
mm
Dir  Spd
km/h
Gust
km/h
Spd
kts
Gust
kts
04/06:20pm 7.9 5.3 7.9 100 0.0 W 11 19 6 10 - - 0.0
04/06:10pm 7.9 5.3 7.9 100 0.0 WNW 11 19 6 10 - - 0.0
04/06:00pm 8.0 4.7 7.9 99 0.0 WNW 15 20 8 11 - - 0.0
04/05:50pm 8.0 5.1 8.0 100 0.0 WNW 13 17 7 9 - - 0.0
04/05:40pm 8.1 5.2 8.0 99 0.0 WNW 13 20 7 11 - - 0.0
04/05:30pm 8.1 5.2 8.1 100 0.0 W 13 20 7 11 - - 0.0
04/05:20pm 8.1 5.2 8.1 100 0.0 W 13 17 7 9 - - 0.0
04/05:10pm 8.1 5.6 8.1 100 0.0 WNW 11 13 6 7 - - 0.0
04/05:00pm 8.2 5.3 8.1 99 0.0 WNW 13 19 7 10 - - 0.0
04/04:50pm 8.2 5.3 8.1 99 0.0 WNW 13 17 7 9 - - 0.0
04/04:40pm 8.2 5.7 8.1 99 0.0 WNW 11 15 6 8 - - 0.0
04/04:30pm 8.2 5.7 8.1 99 0.0 WNW 11 13 6 7 - - 0.0
04/04:20pm 8.3 5.4 8.1 99 0.1 WNW 13 19 7 10 - - 0.0
04/04:10pm 8.3 5.4 8.1 99 0.1 WNW 13 20 7 11 - - 0.0
04/04:00pm 8.4 5.9 8.2 99 0.1 WNW 11 15 6 8 - - 0.0
04/03:50pm 8.4 5.5 8.1 98 0.1 WNW 13 20 7 11 - - 0.0
04/03:40pm 8.6 6.1 8.2 97 0.2 WNW 11 17 6 9 - - 0.0
04/03:30pm 8.7 5.5 8.3 97 0.2 WNW 15 20 8 11 - - 0.0
04/03:20pm 8.8 6.4 8.5 98 0.2 WNW 11 15 6 8 - - 0.0
04/03:10pm 8.9 6.1 8.6 98 0.2 W 13 19 7 10 - - 0.0
04/03:00pm 9.1 6.7 8.8 98 0.2 WNW 11 15 6 8 - - 0.0
04/02:50pm 9.2 6.5 8.8 97 0.2 WNW 13 19 7 10 - - 0.0
04/02:40pm 9.3 6.6 8.9 97 0.2 WNW 13 20 7 11 - - 0.0
04/02:30pm 9.4 6.7 9.0 97 0.2 WNW 13 20 7 11 - - 0.0
04/02:20pm 9.5 6.5 9.1 97 0.2 WNW 15 20 8 11 - - 0.0
04/02:10pm 9.5 7.2 9.1 97 0.2 WNW 11 17 6 9 - - 0.0
04/02:00pm 9.5 7.3 9.2 98 0.2 WNW 11 15 6 8 - - 0.0
04/01:50pm 9.3 7.0 9.0 98 0.2 WNW 11 17 6 9 - - 0.0
04/01:40pm 9.3 7.0 9.0 98 0.2 WNW 11 13 6 7 - - 0.0
04/01:30pm 9.3 7.4 9.1 99 0.1 WNW 9 15 5 8 - - 0.0
04/01:20pm 9.5 7.7 9.3 99 0.1 WNW 9 11 5 6 - - 0.0
04/01:10pm 9.5 7.3 9.2 98 0.2 WNW 11 15 6 8 - - 0.0
04/01:00pm 9.4 7.2 9.2 99 0.1 WNW 11 15 6 8 - - 0.0
04/12:50pm 9.3 7.0 9.1 99 0.1 WNW 11 13 6 7 - - 0.0
04/12:40pm 9.2 6.5 9.0 99 0.1 WNW 13 17 7 9 - - 0.0
04/12:30pm 9.2 6.5 8.9 98 0.2 WNW 13 17 7 9 - - 0.0
04/12:20pm 9.1 7.1 8.8 98 0.2 NW 9 13 5 7 - - 0.0
04/12:10pm 9.0 6.2 8.7 98 0.2 WNW 13 19 7 10 - - 0.0
04/12:00pm 9.0 6.2 8.6 97 0.2 NW 13 20 7 11 - - 0.0
04/11:50am 9.1 6.3 8.7 97 0.2 WNW 13 19 7 10 - - 0.0
04/11:40am 9.1 6.7 8.7 97 0.2 NW 11 17 6 9 - - 0.0
04/11:30am 9.0 6.3 8.8 99 0.1 WNW 13 17 7 9 - - 0.0
04/11:20am 9.0 6.6 8.7 98 0.2 WNW 11 17 6 9 - - 0.0
04/11:10am 8.9 5.7 8.6 98 0.2 WNW 15 19 8 10 - - 0.0
04/11:00am 8.9 6.1 8.7 99 0.1 WNW 13 17 7 9 - - 0.0
04/10:50am 8.9 6.9 8.7 99 0.1 W 9 13 5 7 - - 0.0
04/10:40am 8.8 6.0 8.5 98 0.2 WNW 13 15 7 8 - - 0.0
04/10:30am 8.7 6.7 8.6 99 0.1 WNW 9 17 5 9 - - 0.0
04/10:20am 8.6 6.6 8.5 99 0.1 WNW 9 13 5 7 - - 0.0
04/10:10am 8.6 6.1 8.4 99 0.1 NW 11 15 6 8 - - 0.0
04/10:00am 8.5 6.4 8.4 99 0.1 WNW 9 15 5 8 - - 0.0
04/09:50am 8.4 5.9 8.3 99 0.1 WNW 11 15 6 8 - - 0.0
04/09:40am 8.4 6.3 8.3 99 0.1 NW 9 13 5 7 - - 0.0
04/09:30am 8.3 6.6 8.3 100 0.0 WNW 7 11 4 6 - - 0.0
04/09:20am 8.2 6.6 8.2 100 0.0 WNW 6 11 3 6 - - 0.0
04/09:10am 8.1 5.6 8.0 99 0.0 WNW 11 15 6 8 - - 0.0
04/09:00am 8.1 5.9 8.0 99 0.0 NW 9 13 5 7 - - 0.0
04/08:50am 8.1 6.3 8.1 100 0.0 NW 7 9 4 5 - - 0.0
04/08:40am 8.2 6.0 8.0 99 0.1 WNW 9 15 5 8 - - 0.0
04/08:30am 8.1 5.6 8.0 99 0.0 WNW 11 15 6 8 - - 0.0
04/08:20am 8.1 5.6 8.1 100 0.0 WNW 11 17 6 9 - - 0.0
04/08:10am 8.1 5.6 8.1 100 0.0 WNW 11 15 6 8 - - 0.0
04/08:00am 8.1 6.0 8.1 100 0.0 WNW 9 11 5 6 - - 0.0
04/07:50am 8.0 5.8 8.0 100 0.0 NW 9 15 5 8 - - 0.0
04/07:40am 8.0 5.5 8.0 100 0.0 NW 11 15 6 8 - - 0.0
04/07:30am 8.0 5.5 8.0 100 0.0 WNW 11 13 6 7 - - 0.0
04/07:20am 8.0 5.5 8.0 100 0.0 NW 11 15 6 8 - - 0.0
04/07:00am 7.9 4.9 7.9 100 0.0 WNW 13 19 7 10 - - 0.0
04/06:40am 7.9 4.9 7.9 100 0.0 NW 13 17 7 9 - - 0.0
04/06:30am 7.9 5.3 7.9 100 0.0 NW 11 15 6 8 - - 0.0
04/06:20am 7.9 5.7 7.9 100 0.0 NW 9 11 5 6 - - 0.0
04/06:10am 7.9 5.7 7.9 100 0.0 WNW 9 11 5 6 - - 0.0
04/06:00am 7.9 5.7 7.9 100 0.0 W 9 13 5 7 - - 0.0
04/05:40am 8.0 5.5 8.0 100 0.0 WNW 11 13 6 7 - - 0.0
04/05:30am 8.0 5.8 8.0 100 0.0 NW 9 13 5 7 - - 0.0
04/05:20am 8.0 5.8 8.0 100 0.0 WNW 9 13 5 7 - - 0.0
04/05:10am 8.1 6.3 8.1 100 0.0 WNW 7 9 4 5 - - 0.0
04/05:00am 8.1 6.0 8.1 100 0.0 WNW 9 11 5 6 - - 0.0
04/04:50am 8.1 5.6 8.1 100 0.0 WNW 11 13 6 7 - - 0.0
04/04:40am 8.2 6.5 8.2 100 0.0 NW 7 13 4 7 - - 0.0
04/04:30am 8.2 6.1 8.2 100 0.0 WNW 9 11 5 6 - - 0.0
04/04:20am 8.3 6.2 8.3 100 0.0 NW 9 13 5 7 - - 0.0
04/04:10am 8.4 6.3 8.4 100 0.0 WNW 9 11 5 6 - - 0.0
04/04:00am 8.4 6.3 8.4 100 0.0 WNW 9 11 5 6 - - 0.0
04/03:50am 8.4 6.3 8.4 100 0.0 WNW 9 13 5 7 - - 0.0
04/03:40am 8.5 6.5 8.5 100 0.0 WNW 9 11 5 6 - - 0.0
04/03:30am 8.6 7.0 8.6 100 0.0 WNW 7 11 4 6 - - 0.0
04/03:20am 8.7 7.3 8.7 100 0.0 WNW 6 9 3 5 - - 0.0
04/03:10am 8.8 6.8 8.8 100 0.0 WNW 9 13 5 7 - - 0.0
04/03:00am 8.9 7.0 8.9 100 0.0 WNW 9 11 5 6 - - 0.0
04/02:50am 9.1 7.6 9.1 100 0.0 WNW 7 11 4 6 - - 0.0
04/02:40am 9.3 8.0 9.3 100 0.0 WNW 6 9 3 5 - - 0.0
04/02:30am 9.3 7.5 9.3 100 0.0 W 9 15 5 8 - - 0.0
04/02:20am 9.3 7.8 9.3 100 0.0 W 7 11 4 6 - - 0.0
04/02:10am 9.3 7.5 9.3 100 0.0 W 9 11 5 6 - - 0.0
04/02:00am 9.4 7.6 9.4 100 0.0 W 9 13 5 7 - - 0.0
04/01:50am 9.4 7.6 9.4 100 0.0 W 9 13 5 7 - - 0.0
04/01:40am 9.4 6.8 9.4 100 0.0 W 13 17 7 9 - - 0.0
04/01:30am 9.3 - 9.4 100 - W 11 15 6 8 - - 0.0
04/01:20am 9.4 6.8 9.4 100 0.0 W 13 15 7 8 - - 0.0
04/01:10am 9.4 7.6 9.4 100 0.0 W 9 13 5 7 - - 0.0
04/01:00am 9.4 6.8 9.4 100 0.0 W 13 15 7 8 - - 0.0
04/12:50am 9.4 6.8 9.4 100 0.0 W 13 19 7 10 - - 0.0
04/12:40am 9.3 7.8 9.3 100 0.0 W 7 13 4 7 - - 0.0
04/12:30am 9.3 7.5 9.3 100 0.0 W 9 15 5 8 - - 0.0
04/12:20am 9.2 7.0 9.2 100 0.0 W 11 15 6 8 - - 0.0
04/12:10am 9.2 7.3 9.2 100 0.0 W 9 13 5 7 - - 0.0
04/12:00am 9.2 7.0 9.2 100 0.0 W 11 15 6 8 - - 0.0
 
Date/Time
EST
Temp
°C
App
Temp
°C
Dew
Point
°C
Rel
Hum
%
Delta-T
°C
Wind Press
QNH
hPa
Press
MSL
hPa
Rain since
9am
mm
Dir  Spd
km/h
Gust
km/h
Spd
kts
Gust
kts
03/11:50pm 9.1 6.8 9.1 100 0.0 W 11 13 6 7 - - 0.0
03/11:40pm 9.2 6.6 9.2 100 0.0 W 13 17 7 9 - - 0.0
03/11:30pm 9.2 6.6 9.2 100 0.0 W 13 17 7 9 - - 0.0
03/11:20pm 9.2 7.0 9.2 100 0.0 W 11 17 6 9 - - 0.0
03/11:10pm 9.2 6.6 9.2 100 0.0 W 13 17 7 9 - - 0.0
03/11:00pm 9.1 6.8 9.1 100 0.0 W 11 13 6 7 - - 0.0
03/10:50pm 9.1 6.8 9.0 99 0.1 W 11 15 6 8 - - 0.0
03/10:40pm 9.1 6.8 8.9 99 0.1 W 11 19 6 10 - - 0.0
03/10:30pm 9.1 6.4 8.8 98 0.2 W 13 19 7 10 - - 0.0
03/10:20pm 9.1 6.0 8.9 99 0.1 W 15 22 8 12 - - 0.0
03/10:10pm 9.0 6.7 8.9 99 0.1 W 11 17 6 9 - - 0.0
03/10:00pm 9.0 6.6 8.8 99 0.1 W 11 15 6 8 - - 0.0
03/09:50pm 9.0 5.9 8.7 98 0.2 W 15 19 8 10 - - 0.0
03/09:40pm 9.0 5.9 8.8 99 0.1 W 15 20 8 11 - - 0.0
03/09:30pm 8.9 6.5 8.6 98 0.2 W 11 15 6 8 - - 0.0
03/09:20pm 8.8 6.0 8.5 98 0.2 W 13 17 7 9 - - 0.0
03/09:10pm 8.8 6.0 8.5 98 0.2 W 13 19 7 10 - - 0.0
03/09:00pm 8.9 6.1 8.5 97 0.2 W 13 17 7 9 - - 0.0
03/08:50pm 9.0 5.8 8.4 96 0.3 W 15 17 8 9 - - 0.0
03/08:40pm 9.0 6.3 8.8 99 0.1 W 13 17 7 9 - - 0.0
03/08:30pm 9.0 6.6 8.8 99 0.1 W 11 17 6 9 - - 0.0
03/08:20pm 8.9 6.5 8.7 99 0.1 W 11 17 6 9 - - 0.0
03/08:10pm 9.0 6.2 8.6 97 0.2 W 13 17 7 9 - - 0.0
03/08:00pm 9.1 5.9 8.6 97 0.3 W 15 20 8 11 - - 0.0
03/07:50pm 9.2 6.5 8.8 97 0.2 W 13 19 7 10 - - 0.0
03/07:40pm 9.1 6.4 8.8 98 0.2 W 13 20 7 11 - - 0.0
03/07:30pm 9.1 6.7 8.8 98 0.2 W 11 17 6 9 - - 0.0
03/07:20pm 9.1 6.3 8.7 97 0.2 W 13 17 7 9 - - 0.0
03/07:10pm 9.0 6.2 8.7 98 0.2 W 13 20 7 11 - - 0.0
03/07:00pm 9.0 6.3 8.8 99 0.1 W 13 15 7 8 - - 0.0
03/06:50pm 9.0 6.3 8.9 99 0.1 W 13 17 7 9 - - 0.0
03/06:40pm 9.0 6.3 9.0 100 0.0 W 13 17 7 9 - - 0.0
03/06:30pm 9.0 6.7 8.9 99 0.1 W 11 17 6 9 - - 0.0
03/06:20pm 9.1 6.4 9.0 99 0.1 W 13 17 7 9 - - 0.0
03/06:10pm 9.1 6.8 9.0 99 0.1 W 11 17 6 9 - - 0.0
03/06:00pm 9.1 6.4 9.0 99 0.1 W 13 19 7 10 - - 0.0
03/05:50pm 9.1 7.2 9.0 99 0.1 W 9 15 5 8 - - 0.0
03/05:40pm 9.1 6.0 8.9 99 0.1 W 15 19 8 10 - - 0.0
03/05:30pm 9.1 6.4 8.9 99 0.1 W 13 19 7 10 - - 0.0
03/05:20pm 9.1 6.8 9.1 100 0.0 W 11 15 6 8 - - 0.0
03/05:10pm 9.1 6.8 9.0 99 0.1 W 11 15 6 8 - - 0.0
03/05:00pm 9.0 7.1 8.9 99 0.1 W 9 13 5 7 - - 0.0
03/04:50pm 9.1 6.4 8.8 98 0.2 W 13 15 7 8 - - 0.0
03/04:40pm 9.1 6.8 8.9 99 0.1 W 11 15 6 8 - - 0.0
03/04:30pm 9.1 6.4 8.8 98 0.2 W 13 17 7 9 - - 0.0
03/04:20pm 9.1 6.0 8.8 98 0.2 W 15 19 8 10 - - 0.0
03/04:10pm 9.2 6.1 8.9 98 0.2 W 15 19 8 10 - - 0.0
03/04:00pm 9.3 6.2 8.9 97 0.2 W 15 17 8 9 - - 0.0
03/03:50pm 9.4 5.5 8.8 96 0.3 WSW 19 24 10 13 - - 0.0
03/03:40pm 9.4 6.3 8.9 97 0.3 W 15 19 8 10 - - 0.0
03/03:30pm 9.4 6.3 9.0 97 0.2 W 15 17 8 9 - - 0.0
03/03:20pm 9.4 6.0 9.0 97 0.2 W 17 22 9 12 - - 0.0
03/03:10pm 9.5 7.2 9.1 97 0.2 W 11 15 6 8 - - 0.0
03/03:00pm 9.4 6.4 9.1 98 0.2 W 15 22 8 12 - - 0.0
03/02:50pm 9.5 6.9 9.2 98 0.2 W 13 19 7 10 - - 0.0
03/02:40pm 9.5 5.7 9.1 97 0.2 W 19 24 10 13 - - 0.0
03/02:30pm 9.5 6.5 9.2 98 0.2 WSW 15 20 8 11 - - 0.0
03/02:20pm 9.5 6.5 9.1 97 0.2 W 15 22 8 12 - - 0.0
03/02:10pm 9.6 6.2 9.2 97 0.2 W 17 20 9 11 - - 0.0
03/02:00pm 9.6 6.2 9.3 98 0.2 W 17 22 9 12 - - 0.0
03/01:50pm 9.7 6.7 9.4 98 0.2 W 15 19 8 10 - - 0.0
03/01:40pm 9.6 6.6 9.3 98 0.2 W 15 17 8 9 - - 0.0
03/01:30pm 9.6 6.6 9.2 97 0.2 W 15 19 8 10 - - 0.0
03/01:20pm 9.6 7.0 9.2 97 0.2 W 13 17 7 9 - - 0.0
03/01:10pm 9.8 6.8 9.2 96 0.3 W 15 19 8 10 - - 0.0
03/12:50pm 10.1 7.4 9.0 93 0.6 W 13 20 7 11 - - 0.0
03/12:40pm 10.2 6.7 8.9 92 0.7 W 17 20 9 11 - - 0.0
03/12:30pm 9.9 6.5 9.2 95 0.4 W 17 20 9 11 - - 0.0
03/12:20pm 9.6 6.5 9.0 96 0.3 W 15 22 8 12 - - 0.0
03/12:10pm 9.7 6.3 9.1 96 0.3 W 17 22 9 12 - - 0.0
03/12:00pm 9.9 6.9 9.2 95 0.4 W 15 20 8 11 - - 0.0
03/11:50am 10.1 7.1 9.2 94 0.5 W 15 19 8 10 - - 0.0
03/11:40am 9.6 6.2 9.1 97 0.3 W 17 22 9 12 - - 0.0
03/11:30am 9.5 6.1 9.2 98 0.2 W 17 22 9 12 - - 0.0
03/11:20am 9.4 6.0 9.2 99 0.1 W 17 20 9 11 - - 0.0
03/11:00am 9.1 6.0 9.0 99 0.1 W 15 20 8 11 - - 0.0
03/10:50am 9.2 6.2 9.2 100 0.0 W 15 20 8 11 - - 0.0
03/10:40am 9.3 6.7 9.2 99 0.1 W 13 17 7 9 - - 0.0
03/10:30am 9.2 7.0 9.2 100 0.0 W 11 15 6 8 - - 0.0
03/10:20am 9.2 6.2 9.1 99 0.1 W 15 22 8 12 - - 0.0
03/10:10am 9.1 6.4 9.0 99 0.1 W 13 19 7 10 - - 0.0
03/10:00am 9.0 5.5 8.9 99 0.1 W 17 22 9 12 - - 0.0
03/09:50am 9.0 6.3 8.9 99 0.1 W 13 19 7 10 - - 0.0
03/09:30am 8.9 5.4 8.9 100 0.0 W 17 20 9 11 - - 0.0
03/09:20am 9.1 6.1 9.1 100 0.0 W 15 17 8 9 - - 0.0
03/09:10am 9.1 6.8 9.1 100 0.0 W 11 17 6 9 - - 0.0
03/09:00am 9.1 6.1 9.1 100 0.0 W 15 20 8 11 - - 0.0
03/08:50am 9.0 5.9 9.0 100 0.0 W 15 22 8 12 - - 0.0
03/08:40am 9.0 6.3 9.0 100 0.0 W 13 19 7 10 - - 0.0
03/08:30am 8.9 5.8 8.9 100 0.0 W 15 19 8 10 - - 0.0
03/08:20am 8.9 6.6 8.9 100 0.0 W 11 17 6 9 - - 0.0
03/08:10am 8.9 6.6 8.9 100 0.0 W 11 15 6 8 - - 0.0
03/08:00am 8.8 5.7 8.8 100 0.0 W 15 19 8 10 - - 0.0
03/07:50am 8.7 5.9 8.7 100 0.0 W 13 15 7 8 - - 0.0
03/07:40am 8.6 6.2 8.6 100 0.0 W 11 13 6 7 - - 0.0
03/07:30am 8.5 6.1 8.5 100 0.0 W 11 15 6 8 - - 0.0
03/07:20am 8.4 5.9 8.4 100 0.0 W 11 15 6 8 - - 0.0
03/07:10am 8.2 5.7 8.2 100 0.0 W 11 15 6 8 - - 0.0
03/07:00am 8.1 5.6 8.1 100 0.0 W 11 17 6 9 - - 0.0
03/06:50am 8.0 6.2 8.0 100 0.0 W 7 13 4 7 - - 0.0
03/06:40am 7.9 5.7 7.9 100 0.0 W 9 11 5 6 - - 0.0
03/06:30am 7.9 5.7 7.9 100 0.0 WNW 9 13 5 7 - - 0.0
03/06:20am 7.8 5.2 7.8 100 0.0 W 11 15 6 8 - - 0.0
03/06:10am 7.8 6.0 7.8 100 0.0 WNW 7 13 4 7 - - 0.0
03/06:00am 7.8 5.6 7.8 100 0.0 W 9 13 5 7 - - 0.0
03/05:50am 7.9 5.7 7.9 100 0.0 WNW 9 13 5 7 - - 0.0
03/05:40am 8.0 5.5 8.0 100 0.0 WNW 11 17 6 9 - - 0.0
03/05:30am 8.0 5.5 8.0 100 0.0 W 11 13 6 7 - - 0.0
03/05:20am 8.0 5.5 8.0 100 0.0 W 11 15 6 8 - - 0.0
03/05:10am 8.0 5.5 8.0 100 0.0 W 11 15 6 8 - - 0.0
03/05:00am 8.0 5.8 8.0 100 0.0 W 9 11 5 6 - - 0.0
03/04:50am 7.9 5.7 7.9 100 0.0 W 9 13 5 7 - - 0.0
03/04:40am 7.9 5.7 7.9 100 0.0 WNW 9 11 5 6 - - 0.0
03/04:30am 7.8 6.2 7.8 100 0.0 WNW 6 9 3 5 - - 0.0
03/04:20am 7.8 6.0 7.8 100 0.0 WNW 7 11 4 6 - - 0.0
03/04:10am 7.8 6.0 7.8 100 0.0 WNW 7 11 4 6 - - 0.0
03/04:00am 7.8 6.0 7.8 100 0.0 WNW 7 11 4 6 - - 0.0
03/03:50am 7.7 5.8 7.7 100 0.0 W 7 11 4 6 - - 0.0
03/03:40am 7.8 6.0 7.8 100 0.0 WNW 7 13 4 7 - - 0.0
03/03:30am 7.8 6.0 7.8 100 0.0 W 7 11 4 6 - - 0.0
03/03:20am 7.8 5.6 7.8 100 0.0 W 9 13 5 7 - - 0.0
03/03:10am 7.9 5.7 7.9 100 0.0 WNW 9 11 5 6 - - 0.0
03/03:00am 8.0 6.2 8.0 100 0.0 W 7 9 4 5 - - 0.0
03/02:50am 8.0 6.2 8.0 100 0.0 WNW 7 11 4 6 - - 0.0
03/02:40am 8.0 6.2 8.0 100 0.0 WNW 7 11 4 6 - - 0.0
03/02:30am 8.0 6.4 8.0 100 0.0 WNW 6 7 3 4 - - 0.0
03/02:20am 8.0 6.4 8.0 100 0.0 WNW 6 7 3 4 - - 0.0
03/02:10am 8.0 6.2 8.0 100 0.0 W 7 11 4 6 - - 0.0
03/02:00am 8.0 6.2 8.0 100 0.0 WNW 7 9 4 5 - - 0.0
03/01:50am 8.0 6.2 8.0 100 0.0 W 7 9 4 5 - - 0.0
03/01:40am 8.1 6.3 8.1 100 0.0 W 7 9 4 5 - - 0.0
03/01:30am 8.1 6.3 8.1 100 0.0 W 7 11 4 6 - - 0.0
03/01:20am 8.1 6.3 8.1 100 0.0 WNW 7 9 4 5 - - 0.0
03/01:10am 8.1 6.5 8.1 100 0.0 W 6 7 3 4 - - 0.0
03/01:00am 8.1 6.3 8.1 100 0.0 W 7 9 4 5 - - 0.0
03/12:50am 8.1 6.5 8.1 100 0.0 WNW 6 9 3 5 - - 0.0
03/12:40am 8.2 6.5 8.2 100 0.0 WNW 7 9 4 5 - - 0.0
03/12:30am 8.3 6.8 8.3 100 0.0 WNW 6 9 3 5 - - 0.0
03/12:20am 8.3 6.8 8.3 100 0.0 W 6 9 3 5 - - 0.0
03/12:10am 8.3 6.8 8.3 100 0.0 W 6 11 3 6 - - 0.0
03/12:00am 8.3 6.6 8.3 100 0.0 W 7 11 4 6 - - 0.0
 
Date/Time
EST
Temp
°C
App
Temp
°C
Dew
Point
°C
Rel
Hum
%
Delta-T
°C
Wind Press
QNH
hPa
Press
MSL
hPa
Rain since
9am
mm
Dir  Spd
km/h
Gust
km/h
Spd
kts
Gust
kts
02/11:50pm 8.2 6.5 8.2 100 0.0 WNW 7 9 4 5 - - 0.0
02/11:40pm 8.2 6.6 8.2 100 0.0 W 6 7 3 4 - - 0.0
02/11:30pm 8.1 6.5 8.1 100 0.0 WNW 6 7 3 4 - - 0.0
02/11:20pm 8.2 6.6 8.2 100 0.0 W 6 7 3 4 - - 0.0
02/11:10pm 8.2 6.6 8.2 100 0.0 WNW 6 9 3 5 - - 0.0
02/11:00pm 8.1 6.3 8.1 100 0.0 W 7 9 4 5 - - 0.0
02/10:50pm 8.1 6.0 8.1 100 0.0 W 9 13 5 7 - - 0.0
02/10:40pm 8.0 6.2 8.0 100 0.0 WNW 7 13 4 7 - - 0.0
02/10:30pm 8.0 6.4 8.0 100 0.0 WNW 6 9 3 5 - - 0.0
02/10:20pm 7.9 6.1 7.9 100 0.0 W 7 11 4 6 - - 0.0
02/10:10pm 7.8 6.0 7.8 100 0.0 W 7 9 4 5 - - 0.0
02/10:00pm 7.8 5.6 7.8 100 0.0 WNW 9 13 5 7 - - 0.0
02/09:50pm 7.8 6.0 7.8 100 0.0 WNW 7 11 4 6 - - 0.0
02/09:40pm 7.8 6.0 7.8 100 0.0 W 7 11 4 6 - - 0.0
02/09:30pm 7.8 5.6 7.8 100 0.0 WNW 9 13 5 7 - - 0.0
02/09:20pm 7.8 5.2 7.8 100 0.0 WNW 11 19 6 10 - - 0.0
02/09:10pm 7.8 5.2 7.8 100 0.0 W 11 15 6 8 - - 0.0
02/09:00pm 7.8 5.6 7.8 100 0.0 W 9 13 5 7 - - 0.0
02/08:50pm 7.8 6.0 7.8 100 0.0 W 7 13 4 7 - - 0.0
02/08:40pm 7.9 5.3 7.9 100 0.0 WNW 11 13 6 7 - - 0.0
02/08:30pm 7.9 5.7 7.9 100 0.0 W 9 13 5 7 - - 0.0
02/08:20pm 7.9 5.3 7.9 100 0.0 W 11 15 6 8 - - 0.0
02/08:10pm 7.9 4.9 7.9 100 0.0 W 13 17 7 9 - - 0.0
02/08:00pm 8.0 5.8 8.0 100 0.0 W 9 11 5 6 - - 0.0
02/07:50pm 8.0 5.5 8.0 100 0.0 W 11 15 6 8 - - 0.0
02/07:40pm 8.0 5.1 8.0 100 0.0 W 13 19 7 10 - - 0.0
02/07:30pm 8.0 4.7 8.0 100 0.0 W 15 19 8 10 - - 0.0
02/07:20pm 8.1 4.8 8.1 100 0.0 W 15 19 8 10 - - 0.0
02/07:10pm 8.2 5.3 8.2 100 0.0 W 13 20 7 11 - - 0.0
02/07:00pm 8.2 5.3 8.2 100 0.0 W 13 17 7 9 - - 0.0
02/06:50pm 8.1 4.8 8.1 100 0.0 W 15 17 8 9 - - 0.0
02/06:40pm 8.1 5.2 8.1 100 0.0 W 13 17 7 9 - - 0.0
02/06:30pm 8.1 5.2 8.1 100 0.0 W 13 17 7 9 - - 0.0
02/06:20pm 8.1 5.2 8.1 100 0.0 W 13 19 7 10 - - 0.0
02/06:10pm 8.1 5.2 8.1 100 0.0 W 13 17 7 9 - - 0.0
02/06:00pm 8.0 5.1 8.0 100 0.0 W 13 15 7 8 - - 0.0
02/05:50pm 8.0 5.8 8.0 100 0.0 W 9 13 5 7 - - 0.0
02/05:40pm 8.0 5.5 8.0 100 0.0 WNW 11 17 6 9 - - 0.0
02/05:30pm 8.1 5.6 8.1 100 0.0 W 11 20 6 11 - - 0.0
02/05:20pm 8.1 6.0 8.1 100 0.0 W 9 13 5 7 - - 0.0
02/05:10pm 8.1 5.6 8.1 100 0.0 W 11 17 6 9 - - 0.0
02/05:00pm 8.0 5.8 8.0 100 0.0 W 9 15 5 8 - - 0.0
02/04:50pm 7.9 5.7 7.9 100 0.0 W 9 11 5 6 - - 0.0
02/04:40pm 7.9 5.7 7.9 100 0.0 W 9 13 5 7 - - 0.0
02/04:30pm 7.9 5.7 7.9 100 0.0 W 9 11 5 6 - - 0.0
02/04:20pm 7.9 6.1 7.9 100 0.0 W 7 9 4 5 - - 0.0
02/04:10pm 7.9 5.3 7.9 100 0.0 W 11 19 6 10 - - 0.0
02/04:00pm 7.9 5.3 7.9 100 0.0 W 11 15 6 8 - - 0.0
02/03:50pm 7.9 5.3 7.9 100 0.0 W 11 17 6 9 - - 0.0
02/03:40pm 7.9 5.7 7.9 100 0.0 W 9 11 5 6 - - 0.0
02/03:30pm 8.0 6.2 8.0 100 0.0 W 7 11 4 6 - - 0.0
02/03:20pm 8.0 5.5 8.0 100 0.0 W 11 15 6 8 - - 0.0
02/03:10pm 8.0 5.8 8.0 100 0.0 W 9 13 5 7 - - 0.0
02/03:00pm 8.0 5.5 8.0 100 0.0 W 11 17 6 9 - - 0.0
02/02:50pm 8.0 5.5 8.0 100 0.0 W 11 15 6 8 - - 0.0
02/02:40pm 8.0 5.8 8.0 100 0.0 WNW 9 11 5 6 - - 0.0
02/02:30pm 8.0 5.5 8.0 100 0.0 W 11 15 6 8 - - 0.0
02/02:20pm 8.1 5.6 8.1 100 0.0 W 11 13 6 7 - - 0.0
02/02:10pm 8.1 6.0 8.1 100 0.0 W 9 13 5 7 - - 0.0
02/02:00pm 8.1 5.6 8.1 100 0.0 W 11 15 6 8 - - 0.0
02/01:50pm 8.1 5.2 8.1 100 0.0 W 13 15 7 8 - - 0.0
02/01:40pm 8.1 5.6 8.1 100 0.0 W 11 15 6 8 - - 0.0
02/01:30pm 8.1 5.6 8.1 100 0.0 W 11 15 6 8 - - 0.0
02/01:20pm 8.1 5.6 8.1 100 0.0 W 11 17 6 9 - - 0.0
02/01:10pm 8.1 5.6 8.1 100 0.0 W 11 17 6 9 - - 0.0
02/01:00pm 8.1 5.6 8.1 100 0.0 W 11 13 6 7 - - 0.0
02/12:50pm 8.1 5.6 8.1 100 0.0 W 11 17 6 9 - - 0.0
02/12:40pm 8.2 5.3 8.2 100 0.0 W 13 17 7 9 - - 0.0
02/12:30pm 8.3 5.8 8.3 100 0.0 W 11 15 6 8 - - 0.0
02/12:20pm 8.3 5.8 8.3 100 0.0 W 11 15 6 8 - - 0.0
02/12:10pm 8.3 5.4 8.3 100 0.0 W 13 17 7 9 - - 0.0
02/12:00pm 8.4 5.5 8.3 99 0.1 W 13 19 7 10 - - 0.0
02/11:50am 8.4 5.6 8.4 100 0.0 W 13 22 7 12 - - 0.0
02/11:40am 8.4 5.9 8.4 100 0.0 WNW 11 13 6 7 - - 0.0
02/11:30am 8.4 6.3 8.4 100 0.0 W 9 13 5 7 - - 0.0
02/11:20am 8.3 5.4 8.3 100 0.0 W 13 15 7 8 - - 0.0
02/11:10am 8.3 5.8 8.3 100 0.0 W 11 17 6 9 - - 0.0
02/11:00am 8.3 5.8 8.3 100 0.0 W 11 15 6 8 - - 0.0
02/10:50am 8.3 5.8 8.3 100 0.0 W 11 15 6 8 - - 0.0
02/10:40am 8.4 5.9 8.4 100 0.0 W 11 15 6 8 - - 0.0
02/10:30am 8.4 5.9 8.4 100 0.0 W 11 15 6 8 - - 0.0
02/10:20am 8.4 5.9 8.4 100 0.0 W 11 15 6 8 - - 0.0
02/10:10am 8.3 5.8 8.3 100 0.0 W 11 15 6 8 - - 0.0
02/10:00am 8.3 5.8 8.3 100 0.0 W 11 13 6 7 - - 0.0
02/09:40am 8.2 6.1 8.2 100 0.0 W 9 13 5 7 - - 0.0
02/09:30am 8.2 5.7 8.2 100 0.0 WNW 11 17 6 9 - - 0.0
02/09:20am 8.2 6.1 8.2 100 0.0 W 9 11 5 6 - - 0.0
02/09:10am 8.0 6.2 8.0 100 0.0 W 7 11 4 6 - - 0.0
02/09:00am 7.9 6.1 7.9 100 0.0 W 7 13 4 7 - - 0.0
02/08:50am 7.8 5.6 7.8 100 0.0 W 9 13 5 7 - - 0.0
02/08:40am 7.8 6.0 7.8 100 0.0 W 7 13 4 7 - - 0.0
02/08:30am 7.8 5.6 7.8 100 0.0 W 9 13 5 7 - - 0.0
02/08:20am 7.8 5.6 7.8 100 0.0 WNW 9 11 5 6 - - 0.0
02/08:10am 7.7 5.1 7.7 100 0.0 W 11 13 6 7 - - 0.0
02/08:00am 7.7 5.5 7.7 100 0.0 W 9 11 5 6 - - 0.0
02/07:50am 7.7 5.8 7.7 100 0.0 WNW 7 9 4 5 - - 0.0
02/07:40am 7.6 5.7 7.6 100 0.0 WNW 7 11 4 6 - - 0.0
02/07:30am 7.6 5.3 7.6 100 0.0 WNW 9 11 5 6 - - 0.0
02/07:20am 7.5 5.6 7.5 100 0.0 W 7 11 4 6 - - 0.0
02/07:10am 7.5 5.8 7.5 100 0.0 WNW 6 9 3 5 - - 0.0
02/07:00am 7.4 5.5 7.4 100 0.0 WNW 7 13 4 7 - - 0.0
02/06:50am 7.4 5.7 7.4 100 0.0 WNW 6 9 3 5 - - 0.0
02/06:40am 7.3 5.3 7.3 100 0.0 WNW 7 9 4 5 - - 0.0
02/06:20am 7.3 5.3 7.3 100 0.0 WNW 7 13 4 7 - - 0.0
02/06:10am 7.2 4.8 7.2 100 0.0 W 9 13 5 7 - - 0.0
02/06:00am 7.2 4.8 7.2 100 0.0 W 9 15 5 8 - - 0.0
02/05:50am 7.1 4.7 7.1 100 0.0 WNW 9 11 5 6 - - 0.0
02/05:40am 7.2 4.8 7.2 100 0.0 WNW 9 13 5 7 - - 0.0
02/05:30am 7.2 4.8 7.2 100 0.0 W 9 13 5 7 - - 0.0
02/05:20am 7.1 5.1 7.1 100 0.0 WNW 7 9 4 5 - - 0.0
02/05:10am 7.1 5.1 7.1 100 0.0 WNW 7 11 4 6 - - 0.0
02/05:00am 7.1 5.1 7.1 100 0.0 WNW 7 9 4 5 - - 0.0
02/04:50am 7.0 5.0 7.0 100 0.0 WNW 7 11 4 6 - - 0.0
02/04:40am 7.0 5.2 7.0 100 0.0 WNW 6 7 3 4 - - 0.0
02/04:30am 7.1 5.1 7.1 100 0.0 WNW 7 9 4 5 - - 0.0
02/04:20am 7.1 5.1 7.1 100 0.0 W 7 11 4 6 - - 0.0
02/04:10am 7.1 4.3 7.1 100 0.0 W 11 15 6 8 - - 0.0
02/04:00am 7.1 4.3 7.1 100 0.0 W 11 15 6 8 - - 0.0
02/03:50am 7.1 4.0 7.1 100 0.0 W 13 17 7 9 - - 0.0
02/03:40am 7.1 3.6 7.1 100 0.0 W 15 20 8 11 - - 0.0
02/03:30am 7.1 4.3 7.1 100 0.0 W 11 15 6 8 - - 0.0
02/03:20am 7.1 4.7 7.1 100 0.0 W 9 13 5 7 - - 0.0
02/03:10am 7.1 4.7 7.1 100 0.0 WNW 9 11 5 6 - - 0.0
02/03:00am 7.1 5.1 7.1 100 0.0 WNW 7 9 4 5 - - 0.0
02/02:50am 7.1 5.3 7.1 100 0.0 W 6 7 3 4 - - 0.0
02/02:40am 7.1 5.1 7.1 100 0.0 WNW 7 11 4 6 - - 0.0
02/02:30am 7.1 5.3 7.1 100 0.0 WNW 6 9 3 5 - - 0.0
02/02:20am 7.1 5.1 7.1 100 0.0 WNW 7 11 4 6 - - 0.0
02/02:10am 7.0 5.0 7.0 100 0.0 W 7 11 4 6 - - 0.0
02/02:00am 7.0 5.0 7.0 100 0.0 WNW 7 11 4 6 - - 0.0
02/01:50am 6.9 4.9 6.9 100 0.0 WNW 7 9 4 5 - - 0.0
02/01:40am 6.9 4.9 6.9 100 0.0 W 7 13 4 7 - - 0.0
02/01:30am 6.9 4.9 6.9 100 0.0 W 7 9 4 5 - - 0.0
02/01:20am 6.9 4.5 6.9 100 0.0 W 9 13 5 7 - - 0.0
02/01:10am 6.9 4.9 6.9 100 0.0 W 7 9 4 5 - - 0.0
02/01:00am 7.0 5.0 7.0 100 0.0 W 7 9 4 5 - - 0.0
02/12:50am 7.0 5.0 7.0 100 0.0 WNW 7 9 4 5 - - 0.0
02/12:40am 7.0 5.0 7.0 100 0.0 WNW 7 9 4 5 - - 0.0
02/12:30am 7.0 4.6 7.0 100 0.0 WNW 9 13 5 7 - - 0.0
02/12:20am 7.0 4.6 7.0 100 0.0 W 9 13 5 7 - - 0.0
02/12:10am 7.0 4.6 7.0 100 0.0 W 9 13 5 7 - - 0.0
02/12:00am 7.1 5.1 7.1 100 0.0 W 7 9 4 5 - - 0.0
 
Date/Time
EST
Temp
°C
App
Temp
°C
Dew
Point
°C
Rel
Hum
%
Delta-T
°C
Wind Press
QNH
hPa
Press
MSL
hPa
Rain since
9am
mm
Dir  Spd
km/h
Gust
km/h
Spd
kts
Gust
kts
01/11:50pm 7.1 5.1 7.1 100 0.0 W 7 9 4 5 - - 0.0
01/11:40pm 7.1 5.1 7.1 100 0.0 W 7 13 4 7 - - 0.0
01/11:30pm 7.1 5.1 7.1 100 0.0 W 7 9 4 5 - - 0.0
01/11:20pm 7.1 5.1 7.1 100 0.0 W 7 9 4 5 - - 0.0
01/11:00pm 7.0 5.0 7.0 100 0.0 W 7 13 4 7 - - 0.0
01/10:50pm 7.0 5.0 7.0 100 0.0 W 7 11 4 6 - - 0.0
01/10:40pm 6.9 4.9 6.9 100 0.0 W 7 11 4 6 - - 0.0
01/10:30pm 6.9 5.0 6.9 100 0.0 W 6 7 3 4 - - 0.0
01/10:20pm 6.9 5.0 6.9 100 0.0 W 6 9 3 5 - - 0.0
01/10:10pm 6.9 4.9 6.9 100 0.0 WNW 7 9 4 5 - - 0.0
01/10:00pm 6.9 4.9 6.9 100 0.0 WNW 7 11 4 6 - - 0.0
01/09:50pm 7.0 5.0 7.0 100 0.0 WNW 7 9 4 5 - - 0.0
01/09:30pm 7.0 5.0 7.0 100 0.0 W 7 9 4 5 - - 0.0
01/09:20pm 7.0 5.2 7.0 100 0.0 W 6 9 3 5 - - 0.0
01/09:10pm 7.0 5.2 7.0 100 0.0 WNW 6 9 3 5 - - 0.0
01/09:00pm 7.0 5.5 7.0 100 0.0 WNW 4 6 2 3 - - 0.0
01/08:50pm 7.0 5.2 7.0 100 0.0 WNW 6 7 3 4 - - 0.0
01/08:40pm 7.0 5.2 7.0 100 0.0 W 6 9 3 5 - - 0.0
01/08:30pm 7.0 5.2 7.0 100 0.0 WNW 6 9 3 5 - - 0.0
01/08:10pm 6.9 5.4 6.9 100 0.0 WNW 4 6 2 3 - - 0.0
01/08:00pm 6.9 4.9 6.9 100 0.0 WNW 7 11 4 6 - - 0.0
01/07:50pm 6.8 4.9 6.8 100 0.0 W 6 7 3 4 - - 0.0
01/07:40pm 6.8 4.9 6.8 100 0.0 WNW 6 7 3 4 - - 0.0
01/07:30pm 6.8 4.9 6.8 100 0.0 W 6 7 3 4 - - 0.0
01/07:20pm 6.7 - 6.8 100 - W 6 9 3 5 - - 0.0
01/07:00pm 6.7 4.8 6.7 100 0.0 WNW 6 11 3 6 - - 0.0
01/06:50pm 6.8 4.9 6.8 100 0.0 W 6 9 3 5 - - 0.0
01/06:40pm 6.8 4.7 6.8 100 0.0 W 7 11 4 6 - - 0.0

Other formats

Comma delimited format used in spreadsheet applications
http://www.bom.gov.au/fwo/IDN60801/IDN60801.99106.axf

JavaScript Object Notation format (JSON) in row-major order
http://www.bom.gov.au/fwo/IDN60801/IDN60801.99106.json

Data quality

Most of these data are generated automatically and are frequently updated. Quality checks on data are not normally performed. It is possible for incorrect values to appear. Refer to information at About Latest Weather Observations and please check the disclaimer before using these data.